Time;durP1;ratioP1;P1;durP2;ratioP2;P2;SDS_P1;SDS_P2;PMS_P1;PMS_P2;Temp;Humidity;BMP_temperature;BMP_pressure;BME280_temperature;BME280_humidity;BME280_pressure;Samples;Min_cycle;Max_cycle;Signal;HPM_P1;HPM_P2
2023/10/11 00:02:56;;;;;;;47.83;17.52;;;16.10;99.90;;;;;;5056990;28;20056;-79
2023/10/11 00:05:23;;;;;;;49.10;18.80;;;16.20;99.90;;;;;;5055399;28;20044;-79
2023/10/11 00:07:49;;;;;;;48.90;18.00;;;16.20;99.90;;;;;;5055760;28;20049;-79
2023/10/11 00:10:19;;;;;;;49.97;20.05;;;16.20;99.90;;;;;;5055396;28;20044;-79
2023/10/11 00:12:45;;;;;;;48.95;18.98;;;16.20;99.90;;;;;;5055653;28;20053;-79
2023/10/11 00:15:11;;;;;;;44.53;17.55;;;16.20;99.90;;;;;;5055921;28;20099;-79
2023/10/11 00:17:37;;;;;;;48.63;18.20;;;16.20;99.90;;;;;;5056575;28;20420;-79
2023/10/11 00:22:51;;;;;;;41.78;17.88;;;16.30;99.90;;;;;;5055169;28;20059;-79
2023/10/11 00:25:23;;;;;;;44.50;16.88;;;16.20;99.90;;;;;;5056645;28;20064;-79
2023/10/11 00:27:53;;;;;;;44.22;17.83;;;16.20;99.90;;;;;;5055289;28;20111;-79
2023/10/11 00:30:21;;;;;;;46.33;17.33;;;16.30;99.90;;;;;;5055369;28;20052;-79
2023/10/11 00:32:46;;;;;;;47.85;18.80;;;16.20;99.90;;;;;;5054914;28;20110;-79
2023/10/11 00:35:18;;;;;;;47.83;18.17;;;16.20;99.90;;;;;;5055105;28;20041;-79
2023/10/11 00:37:49;;;;;;;43.53;17.25;;;16.20;99.90;;;;;;5054978;28;20055;-79
2023/10/11 00:40:25;;;;;;;48.72;17.13;;;16.20;99.90;;;;;;5054732;28;20454;-79
2023/10/11 00:42:53;;;;;;;44.35;18.25;;;16.20;99.90;;;;;;5054914;28;20059;-79
2023/10/11 00:45:22;;;;;;;44.22;18.52;;;16.20;99.90;;;;;;5054621;28;20037;-79
2023/10/11 00:47:51;;;;;;;46.13;19.33;;;16.10;99.90;;;;;;5054949;28;20076;-79
2023/10/11 00:50:17;;;;;;;41.63;17.90;;;16.20;99.90;;;;;;5054668;28;20094;-79
2023/10/11 00:52:45;;;;;;;37.53;17.13;;;16.10;99.90;;;;;;5054910;28;20037;-79
2023/10/11 00:55:17;;;;;;;46.10;18.35;;;16.10;99.90;;;;;;5054657;28;20439;-79
2023/10/11 00:57:48;;;;;;;44.67;18.25;;;16.20;99.90;;;;;;5054444;28;20489;-79
2023/10/11 01:00:16;;;;;;;44.60;18.80;;;16.20;99.90;;;;;;5055941;28;20068;-79
2023/10/11 01:02:45;;;;;;;46.15;17.60;;;16.10;99.90;;;;;;5054543;28;20098;-79
2023/10/11 01:05:12;;;;;;;42.85;18.88;;;16.20;99.90;;;;;;5053933;28;20128;-79
2023/10/11 01:07:41;;;;;;;50.40;18.55;;;16.20;99.90;;;;;;5053790;28;20076;-79
2023/10/11 01:10:08;;;;;;;42.40;17.92;;;16.20;99.90;;;;;;5054497;28;20049;-79
2023/10/11 01:12:34;;;;;;;48.17;19.58;;;16.10;99.90;;;;;;5054167;28;20091;-78
2023/10/11 01:15:01;;;;;;;50.78;17.70;;;16.20;99.90;;;;;;5054447;28;20045;-79
2023/10/11 01:17:27;;;;;;;41.08;17.88;;;16.10;99.90;;;;;;5055452;28;20103;-79
2023/10/11 01:19:53;;;;;;;40.03;17.52;;;16.20;99.90;;;;;;5054276;28;20048;-79
2023/10/11 01:22:19;;;;;;;36.70;16.67;;;16.20;99.90;;;;;;5054183;28;20048;-79
2023/10/11 01:24:47;;;;;;;45.08;17.52;;;16.20;99.90;;;;;;5054174;28;20708;-79
2023/10/11 01:27:14;;;;;;;45.67;16.73;;;16.10;99.90;;;;;;5055344;28;20045;-79
2023/10/11 01:29:40;;;;;;;38.42;17.20;;;16.20;99.90;;;;;;5054075;28;20053;-79
2023/10/11 01:32:06;;;;;;;37.10;17.05;;;16.20;99.90;;;;;;5055200;28;20143;-80
2023/10/11 01:34:32;;;;;;;42.50;16.73;;;16.20;99.90;;;;;;5055136;28;20067;-79
2023/10/11 01:36:59;;;;;;;39.72;15.90;;;16.20;99.90;;;;;;5055078;28;20045;-79
2023/10/11 01:39:24;;;;;;;39.72;15.93;;;16.20;99.90;;;;;;5053743;28;20114;-79
2023/10/11 01:41:54;;;;;;;43.53;17.48;;;16.10;99.90;;;;;;5053709;28;20056;-78
2023/10/11 01:44:22;;;;;;;40.45;16.70;;;16.20;99.90;;;;;;5054003;28;20136;-79
2023/10/11 01:46:48;;;;;;;39.10;16.38;;;16.20;99.90;;;;;;5053599;28;20392;-79
2023/10/11 01:49:14;;;;;;;39.33;15.10;;;16.20;99.90;;;;;;5053621;28;20132;-79
2023/10/11 01:51:46;;;;;;;43.42;16.73;;;16.20;99.90;;;;;;5053787;28;20087;-79
2023/10/11 01:54:15;;;;;;;33.55;14.25;;;16.20;99.90;;;;;;5053509;28;20049;-79
2023/10/11 01:56:41;;;;;;;32.95;13.77;;;16.20;99.90;;;;;;5053532;28;20048;-78
2023/10/11 01:59:07;;;;;;;38.70;15.00;;;16.20;99.90;;;;;;5053346;28;20075;-79
2023/10/11 02:01:39;;;;;;;37.40;15.20;;;16.20;99.90;;;;;;5054704;28;20047;-79
2023/10/11 02:04:10;;;;;;;34.83;14.80;;;16.20;99.90;;;;;;5053739;28;20047;-79
2023/10/11 02:06:38;;;;;;;38.83;15.05;;;16.20;99.90;;;;;;5053436;28;20041;-79
2023/10/11 02:09:04;;;;;;;41.35;14.43;;;16.20;99.90;;;;;;5054424;28;20047;-78
2023/10/11 02:11:30;;;;;;;43.95;15.85;;;16.10;99.90;;;;;;5053285;28;20068;-79
2023/10/11 02:13:59;;;;;;;37.65;15.00;;;16.10;99.90;;;;;;5053131;28;20440;-79
2023/10/11 02:16:25;;;;;;;34.53;13.65;;;16.10;99.90;;;;;;5052753;28;20049;-78
2023/10/11 02:19:00;;;;;;;36.83;14.07;;;16.20;99.90;;;;;;5054065;28;20553;-78
2023/10/11 02:21:33;;;;;;;41.35;14.90;;;16.20;99.90;;;;;;5053108;28;20583;-78
2023/10/11 02:24:03;;;;;;;35.70;13.52;;;16.20;99.90;;;;;;5052940;28;20491;-79
2023/10/11 02:26:34;;;;;;;35.17;14.23;;;16.20;99.90;;;;;;5053015;28;20489;-79
2023/10/11 02:29:00;;;;;;;33.38;13.50;;;16.20;99.90;;;;;;5054211;28;20048;-79
2023/10/11 02:31:31;;;;;;;36.88;14.05;;;16.20;99.90;;;;;;5053091;28;20056;-79
2023/10/11 02:34:15;;;;;;;32.15;12.98;;;16.20;99.90;;;;;;5052964;28;20045;-79
2023/10/11 02:36:45;;;;;;;32.47;14.20;;;16.30;99.90;;;;;;5052852;28;20066;-79
2023/10/11 02:39:20;;;;;;;37.00;13.73;;;16.30;99.90;;;;;;5052397;28;20120;-79
2023/10/11 02:41:50;;;;;;;43.50;14.15;;;16.20;99.90;;;;;;5052654;28;20128;-79
2023/10/11 02:44:16;;;;;;;42.20;13.93;;;16.30;99.90;;;;;;5052418;28;20041;-79
2023/10/11 02:46:44;;;;;;;29.42;12.68;;;16.30;99.90;;;;;;5052462;28;20132;-78
2023/10/11 02:49:19;;;;;;;37.10;14.88;;;16.20;99.90;;;;;;5053701;28;20087;-79
2023/10/11 02:51:53;;;;;;;35.55;13.02;;;16.30;99.90;;;;;;5052557;28;20048;-78
2023/10/11 02:54:38;;;;;;;37.63;13.88;;;16.30;99.90;;;;;;5052413;28;20386;-79
2023/10/11 02:57:20;;;;;;;38.47;13.45;;;16.30;99.90;;;;;;5052452;28;20052;-78
2023/10/11 02:59:50;;;;;;;37.58;13.32;;;16.30;99.90;;;;;;5052437;28;20049;-79
2023/10/11 03:02:16;;;;;;;35.85;13.02;;;16.30;99.90;;;;;;5052392;28;20056;-78
2023/10/11 03:04:42;;;;;;;39.17;14.77;;;16.20;99.90;;;;;;5053345;28;20048;-79
2023/10/11 03:07:21;;;;;;;28.55;13.02;;;16.20;99.90;;;;;;5052126;28;20040;-78
2023/10/11 03:09:47;;;;;;;36.33;13.40;;;16.30;99.90;;;;;;5052492;28;20052;-79
2023/10/11 03:12:19;;;;;;;33.40;12.90;;;16.20;99.90;;;;;;5052213;28;20041;-79
2023/10/11 03:14:46;;;;;;;39.10;12.57;;;16.20;99.90;;;;;;5053577;28;20377;-79
2023/10/11 03:17:15;;;;;;;30.13;13.52;;;16.30;99.90;;;;;;5052235;28;20810;-78
2023/10/11 03:19:42;;;;;;;39.88;13.15;;;16.30;99.90;;;;;;5052149;28;20045;-79
2023/10/11 03:22:19;;;;;;;30.52;12.52;;;16.30;99.90;;;;;;5053246;28;20388;-79
2023/10/11 03:25:00;;;;;;;35.78;12.35;;;16.20;99.90;;;;;;5052083;28;20076;-79
2023/10/11 03:27:27;;;;;;;37.47;13.00;;;16.20;99.90;;;;;;5052160;28;20092;-78
2023/10/11 03:29:53;;;;;;;27.50;13.00;;;16.20;99.90;;;;;;5054209;28;20484;-78
2023/10/11 03:32:19;;;;;;;35.92;12.95;;;16.20;99.90;;;;;;5056068;28;20067;-79
2023/10/11 03:34:45;;;;;;;30.77;13.45;;;16.30;99.90;;;;;;5057474;28;20120;-79
2023/10/11 03:37:17;;;;;;;28.33;12.20;;;16.30;99.90;;;;;;5056244;28;20131;-79
2023/10/11 03:39:54;;;;;;;36.30;13.18;;;16.20;99.90;;;;;;5055966;28;20055;-78
2023/10/11 03:42:20;;;;;;;28.38;11.93;;;16.20;99.90;;;;;;5055877;28;20087;-79
2023/10/11 03:44:46;;;;;;;38.45;13.07;;;16.20;99.90;;;;;;5055828;28;20037;-79
2023/10/11 03:47:14;;;;;;;33.50;11.82;;;16.10;99.90;;;;;;5055762;28;20044;-79
2023/10/11 03:52:24;;;;;;;32.15;11.93;;;16.10;99.90;;;;;;5057122;28;20057;-79
2023/10/11 03:54:55;;;;;;;34.67;13.50;;;16.10;99.90;;;;;;5055949;28;20052;-79
2023/10/11 03:57:22;;;;;;;31.13;13.05;;;16.10;99.90;;;;;;5055685;28;20397;-79
2023/10/11 03:59:51;;;;;;;29.27;12.23;;;16.10;99.90;;;;;;5055524;28;20056;-79
2023/10/11 04:02:17;;;;;;;32.10;13.05;;;16.10;99.90;;;;;;5055594;28;20041;-79
2023/10/11 04:04:49;;;;;;;33.90;13.48;;;16.10;99.90;;;;;;5055393;28;20041;-79
2023/10/11 04:07:16;;;;;;;34.03;13.57;;;16.00;99.90;;;;;;5055826;28;20141;-78
2023/10/11 04:09:45;;;;;;;30.02;12.88;;;16.10;99.90;;;;;;5055317;28;20420;-79
2023/10/11 04:12:12;;;;;;;32.88;13.57;;;16.00;99.90;;;;;;5055639;28;20049;-79
2023/10/11 04:14:45;;;;;;;31.13;12.63;;;16.00;99.90;;;;;;5055334;28;20052;-79
2023/10/11 04:19:50;;;;;;;29.25;11.63;;;15.90;99.90;;;;;;5055389;28;20111;-79
2023/10/11 04:22:25;;;;;;;31.55;12.80;;;15.90;99.90;;;;;;5055367;28;20056;-79
2023/10/11 04:24:54;;;;;;;39.85;13.23;;;16.00;99.90;;;;;;5056417;28;20397;-79
2023/10/11 04:29:53;;;;;;;29.27;12.90;;;15.90;99.90;;;;;;5055243;28;20147;-79
2023/10/11 04:35:10;;;;;;;33.65;13.60;;;15.90;99.90;;;;;;5056373;28;20126;-78
2023/10/11 04:37:43;;;;;;;29.67;12.65;;;15.90;99.90;;;;;;5054909;28;20052;-79
2023/10/11 04:40:23;;;;;;;;;;;15.90;99.90;;;;;;5055458;28;20493;-79
2023/10/11 04:43:04;;;;;;;30.83;12.23;;;15.80;99.90;;;;;;5055997;28;19920;-79
2023/10/11 04:45:45;;;;;;;36.92;13.75;;;15.90;99.90;;;;;;5054965;28;20124;-79
2023/10/11 04:48:18;;;;;;;28.98;12.45;;;15.90;99.90;;;;;;5055097;28;20131;-79
2023/10/11 04:50:50;;;;;;;29.60;12.52;;;15.90;99.90;;;;;;5054764;28;20049;-79
2023/10/11 04:53:21;;;;;;;38.57;13.67;;;15.80;99.90;;;;;;5054549;28;20385;-79
2023/10/11 04:56:01;;;;;;;30.55;13.70;;;15.80;99.90;;;;;;5054578;28;20055;-79
2023/10/11 04:58:41;;;;;;;32.90;12.88;;;15.80;99.90;;;;;;5054618;28;20080;-79
2023/10/11 05:01:11;;;;;;;33.92;12.48;;;15.90;99.90;;;;;;5054586;28;20053;-79
2023/10/11 05:03:38;;;;;;;36.00;13.02;;;15.90;99.90;;;;;;5054509;28;20135;-78
2023/10/11 05:06:13;;;;;;;30.17;13.05;;;15.90;99.90;;;;;;5054363;28;20080;-78
2023/10/11 05:08:51;;;;;;;36.00;14.30;;;15.80;99.90;;;;;;5054667;28;20133;-79
2023/10/11 05:11:53;;;;;;;37.85;14.90;;;15.90;99.90;;;;;;5054411;28;20049;-79
2023/10/11 05:14:30;;;;;;;39.03;13.55;;;15.80;99.90;;;;;;5050412;28;20107;-79
2023/10/11 05:22:35;;;;;;;30.95;12.57;;;16.00;99.90;;;;;;5054310;28;20076;-79
2023/10/11 05:32:41;;;;;;;32.47;13.80;;;16.10;99.90;;;;;;5055156;28;20443;-79
2023/10/11 05:51:27;;;;;;;31.95;12.98;;;16.20;99.90;;;;;;5054477;28;20049;-79
2023/10/11 05:53:54;;;;;;;36.15;14.50;;;16.10;99.90;;;;;;5053298;28;20124;-78
2023/10/11 05:56:23;;;;;;;29.67;12.68;;;16.20;99.90;;;;;;5053569;28;20127;-79
2023/10/11 05:58:52;;;;;;;30.05;13.45;;;16.20;99.90;;;;;;5053658;28;20048;-79
2023/10/11 06:01:23;;;;;;;35.17;13.40;;;16.30;99.90;;;;;;5053337;28;20131;-79
2023/10/11 06:03:55;;;;;;;32.03;12.40;;;16.30;99.90;;;;;;5053334;28;20072;-79
2023/10/11 06:06:27;;;;;;;31.88;13.07;;;16.30;99.90;;;;;;5054348;28;20044;-79
2023/10/11 06:08:57;;;;;;;36.10;13.57;;;16.20;99.90;;;;;;5053271;28;20148;-79
2023/10/11 06:11:29;;;;;;;32.65;13.05;;;16.30;99.90;;;;;;5052762;28;20533;-79
2023/10/11 06:14:06;;;;;;;30.80;12.82;;;16.40;99.90;;;;;;5052220;28;20048;-79
2023/10/11 06:16:37;;;;;;;28.35;12.65;;;16.40;99.90;;;;;;5052511;28;20469;-80
2023/10/11 06:19:18;;;;;;;38.47;13.85;;;16.40;99.90;;;;;;5053091;28;20135;-80
2023/10/11 06:22:09;;;;;;;38.67;14.07;;;16.30;99.90;;;;;;5053107;28;20063;-79
2023/10/11 06:24:39;;;;;;;30.10;13.88;;;16.40;99.90;;;;;;5052878;28;20056;-79
2023/10/11 06:29:56;;;;;;;29.60;13.77;;;16.40;99.90;;;;;;5042037;28;20050;-79
2023/10/11 06:32:23;;;;;;;25.85;13.27;;;16.40;99.90;;;;;;5034056;28;20476;-79
2023/10/11 06:34:50;;;;;;;33.55;14.05;;;16.40;99.90;;;;;;5040128;28;20116;-78
2023/10/11 06:37:25;;;;;;;25.05;13.05;;;16.50;99.90;;;;;;5035185;28;20057;-78
2023/10/11 06:45:16;;;;;;;38.80;13.38;;;16.50;99.90;;;;;;5032224;28;20482;-78
2023/10/11 06:47:42;;;;;;;32.22;12.65;;;16.60;99.90;;;;;;5032312;28;20049;-78
2023/10/11 06:50:11;;;;;;;30.90;13.68;;;16.60;99.90;;;;;;5032443;28;20121;-78
2023/10/11 06:52:44;;;;;;;27.98;13.55;;;16.50;99.90;;;;;;5032224;28;20480;-78
2023/10/11 06:55:14;;;;;;;29.73;12.35;;;16.50;99.90;;;;;;5032407;28;20416;-78
2023/10/11 06:57:50;;;;;;;30.58;12.30;;;16.70;99.90;;;;;;5032609;28;20045;-78
2023/10/11 07:00:29;;;;;;;30.90;13.23;;;16.70;99.90;;;;;;5032321;28;20473;-78
2023/10/11 07:03:09;;;;;;;28.45;12.40;;;16.60;99.90;;;;;;5031991;28;20045;-79
2023/10/11 07:05:47;;;;;;;29.67;12.32;;;16.70;99.90;;;;;;5032015;28;20047;-78
2023/10/11 07:08:17;;;;;;;31.75;11.95;;;16.60;99.90;;;;;;5032124;28;20132;-78
2023/10/11 07:11:00;;;;;;;23.75;12.20;;;16.60;99.90;;;;;;5033365;28;20076;-78
2023/10/11 07:13:29;;;;;;;34.65;12.93;;;16.70;99.90;;;;;;5032007;28;20481;-78
2023/10/11 07:15:57;;;;;;;28.23;12.63;;;16.70;99.90;;;;;;5031923;28;20038;-78
2023/10/11 07:18:27;;;;;;;23.63;12.18;;;16.70;99.90;;;;;;5031709;28;20546;-78
2023/10/11 07:21:07;;;;;;;27.50;13.30;;;16.70;99.90;;;;;;5033264;28;20060;-79
2023/10/11 07:28:59;;;;;;;25.45;13.23;;;16.70;99.90;;;;;;5031809;28;20057;-78
2023/10/11 07:31:35;;;;;;;27.83;11.45;;;16.80;99.90;;;;;;5031678;28;20555;-78
2023/10/11 07:34:06;;;;;;;24.38;12.45;;;16.70;99.90;;;;;;5031950;28;20123;-79
2023/10/11 07:36:36;;;;;;;25.33;11.65;;;16.80;99.90;;;;;;5031560;28;20064;-79
2023/10/11 07:39:14;;;;;;;25.30;11.55;;;16.70;99.90;;;;;;5031719;28;20045;-79
2023/10/11 07:41:43;;;;;;;25.00;11.93;;;16.80;99.90;;;;;;5033049;28;20050;-79
2023/10/11 07:44:10;;;;;;;28.27;12.27;;;16.80;99.90;;;;;;5031615;28;20049;-79
2023/10/11 07:46:37;;;;;;;27.17;12.90;;;16.80;99.90;;;;;;5031612;28;20045;-78
2023/10/11 07:49:08;;;;;;;23.27;11.93;;;16.80;99.90;;;;;;5033203;28;20038;-78
2023/10/11 07:51:40;;;;;;;24.52;12.35;;;16.70;99.90;;;;;;5031613;28;20489;-79
2023/10/11 07:54:07;;;;;;;23.48;10.85;;;16.70;99.90;;;;;;5032019;28;20489;-79
2023/10/11 07:56:36;;;;;;;26.10;9.68;;;16.80;99.90;;;;;;5032122;28;20057;-79
2023/10/11 07:59:08;;;;;;;22.52;10.57;;;16.80;99.90;;;;;;5031550;28;20041;-79
2023/10/11 08:01:42;;;;;;;18.35;9.48;;;16.80;99.90;;;;;;5031880;28;20073;-79
2023/10/11 08:04:21;;;;;;;17.35;9.73;;;16.80;99.90;;;;;;5031390;28;20066;-79
2023/10/11 08:06:50;;;;;;;18.92;9.15;;;16.80;99.90;;;;;;5032613;28;20038;-79
2023/10/11 08:09:20;;;;;;;19.55;9.68;;;16.80;99.90;;;;;;5031632;28;20527;-78
2023/10/11 08:11:54;;;;;;;20.33;10.13;;;16.80;99.90;;;;;;5031686;28;20524;-79
2023/10/11 08:14:23;;;;;;;18.38;10.30;;;16.80;99.90;;;;;;5031673;28;20049;-79
2023/10/11 08:16:49;;;;;;;19.00;8.85;;;16.80;99.90;;;;;;5034736;28;20099;-78
2023/10/11 08:19:15;;;;;;;17.17;8.45;;;16.80;99.90;;;;;;5036005;28;20509;-80
2023/10/11 08:21:41;;;;;;;17.88;9.60;;;16.90;99.90;;;;;;5034933;28;20083;-81
2023/10/11 08:24:15;;;;;;;22.40;8.98;;;16.90;99.90;;;;;;5035144;28;20081;-81
2023/10/11 08:26:42;;;;;;;19.17;9.02;;;16.90;99.90;;;;;;5035024;28;20045;-80
2023/10/11 08:29:27;;;;;;;16.70;8.30;;;17.00;99.90;;;;;;5045912;28;20441;-78
2023/10/11 08:31:56;;;;;;;16.75;7.78;;;17.00;99.90;;;;;;5074558;28;20052;-79
2023/10/11 08:34:23;;;;;;;21.02;9.40;;;17.00;99.90;;;;;;5075504;28;20050;-80
2023/10/11 08:36:48;;;;;;;18.08;8.70;;;17.10;99.90;;;;;;5074486;28;20442;-78
2023/10/11 08:39:14;;;;;;;22.60;9.13;;;17.20;99.90;;;;;;5073728;28;20040;-80
2023/10/11 08:41:43;;;;;;;18.60;9.68;;;17.20;99.90;;;;;;5074531;28;20056;-79
2023/10/11 08:44:20;;;;;;;21.50;9.75;;;17.20;99.90;;;;;;5074372;28;20044;-80
2023/10/11 08:46:50;;;;;;;24.35;10.98;;;17.20;99.90;;;;;;5074444;28;20063;-80
2023/10/11 08:49:17;;;;;;;22.67;11.85;;;17.30;99.90;;;;;;5074418;28;20044;-81
2023/10/11 08:51:43;;;;;;;25.65;12.85;;;17.30;99.90;;;;;;5074338;28;20048;-79
2023/10/11 08:54:12;;;;;;;24.85;13.07;;;17.30;99.90;;;;;;5074238;28;20057;-79
2023/10/11 08:56:39;;;;;;;21.77;11.00;;;17.30;99.90;;;;;;5073931;28;20380;-78
2023/10/11 08:59:06;;;;;;;19.98;10.35;;;17.30;99.90;;;;;;5045863;28;20515;-78
2023/10/11 09:01:36;;;;;;;22.90;10.57;;;17.30;99.90;;;;;;5054355;28;20120;-79
2023/10/11 09:04:13;;;;;;;20.00;9.85;;;17.30;99.90;;;;;;5066108;28;20055;-79
2023/10/11 09:06:45;;;;;;;18.13;9.93;;;17.30;99.90;;;;;;5074067;28;20051;-79
2023/10/11 09:09:32;;;;;;;;;;;17.40;99.90;;;;;;5074328;28;20087;-78
2023/10/11 09:11:59;;;;;;;26.52;10.20;;;17.50;99.90;;;;;;5074155;28;19951;-78
2023/10/11 09:14:27;;;;;;;18.38;10.20;;;17.50;99.90;;;;;;5073857;28;20133;-78
2023/10/11 09:17:02;;;;;;;13.38;8.20;;;17.40;99.90;;;;;;5073746;28;20400;-79
2023/10/11 09:19:28;;;;;;;17.17;8.57;;;17.40;99.90;;;;;;5074904;28;20124;-79
2023/10/11 09:22:03;;;;;;;14.38;8.02;;;17.40;99.90;;;;;;5073794;28;20055;-78
2023/10/11 09:24:38;;;;;;;18.05;8.07;;;17.30;99.90;;;;;;5074890;28;20040;-79
2023/10/11 09:29:44;;;;;;;19.58;8.65;;;17.30;99.90;;;;;;5075096;28;20185;-80
2023/10/11 09:32:13;;;;;;;16.98;8.00;;;17.30;99.90;;;;;;5073667;28;20093;-79
2023/10/11 09:34:41;;;;;;;18.10;8.65;;;17.30;99.90;;;;;;5074980;28;20045;-79
2023/10/11 09:37:13;;;;;;;18.05;7.65;;;17.30;99.90;;;;;;5072839;28;20484;-79
2023/10/11 09:39:42;;;;;;;15.45;8.63;;;17.30;99.90;;;;;;5073223;28;20381;-79
2023/10/11 09:42:11;;;;;;;17.27;8.18;;;17.30;99.90;;;;;;5073264;28;20049;-79
2023/10/11 09:44:39;;;;;;;18.50;7.63;;;17.30;99.90;;;;;;5074806;28;20111;-79
2023/10/11 09:47:06;;;;;;;19.15;7.97;;;17.30;99.90;;;;;;5073189;28;20431;-79
2023/10/11 09:49:41;;;;;;;17.58;8.02;;;17.20;99.90;;;;;;5074444;28;20048;-79
2023/10/11 09:52:15;;;;;;;21.38;8.48;;;17.30;99.90;;;;;;5073411;28;20048;-78
2023/10/11 09:54:41;;;;;;;19.02;8.27;;;17.30;99.90;;;;;;5073395;28;20080;-78
2023/10/11 09:57:41;;;;;;;16.17;8.65;;;17.30;99.90;;;;;;5072782;28;20131;-78
2023/10/11 10:00:18;;;;;;;14.65;8.07;;;17.30;99.90;;;;;;5073008;28;20052;-79
2023/10/11 10:02:50;;;;;;;18.52;8.23;;;17.30;99.90;;;;;;5073129;28;20122;-79
2023/10/11 10:05:17;;;;;;;20.92;8.73;;;17.30;99.90;;;;;;5072771;28;20123;-79
2023/10/11 10:07:51;;;;;;;19.23;8.85;;;17.40;99.90;;;;;;5074459;28;20079;-79
2023/10/11 10:10:25;;;;;;;17.58;8.52;;;17.50;99.90;;;;;;5072750;28;20381;-78
2023/10/11 10:12:58;;;;;;;20.00;9.23;;;17.50;99.90;;;;;;5065332;28;20052;-79
2023/10/11 10:15:36;;;;;;;17.17;7.40;;;17.60;99.90;;;;;;5052975;28;20144;-80
2023/10/11 10:18:12;;;;;;;15.98;6.80;;;17.60;99.90;;;;;;5052634;28;20136;-79
2023/10/11 10:20:42;;;;;;;16.35;7.28;;;17.60;99.90;;;;;;5052679;28;20048;-79
2023/10/11 10:23:14;;;;;;;17.67;7.18;;;17.60;99.90;;;;;;5052795;28;20516;-79
2023/10/11 10:25:46;;;;;;;23.08;7.00;;;17.60;99.90;;;;;;5052494;28;20175;-79
2023/10/11 10:28:36;;;;;;;12.30;6.30;;;17.70;99.90;;;;;;5052717;28;20550;-79
2023/10/11 10:31:10;;;;;;;16.75;7.45;;;17.70;99.90;;;;;;5052451;28;20448;-78
2023/10/11 10:33:37;;;;;;;17.58;6.65;;;17.80;99.90;;;;;;5052681;28;20060;-79
2023/10/11 10:36:32;;;;;;;17.45;6.72;;;17.80;99.90;;;;;;5052582;28;20048;-80
2023/10/11 10:39:00;;;;;;;14.05;6.38;;;17.80;99.90;;;;;;5021873;28;20439;-79
2023/10/11 10:41:36;;;;;;;18.50;6.68;;;17.90;99.90;;;;;;5052137;28;20064;-79
2023/10/11 10:44:05;;;;;;;15.80;6.03;;;17.90;99.90;;;;;;5052311;28;20061;-79
2023/10/11 10:46:31;;;;;;;16.90;5.80;;;17.90;99.90;;;;;;5065118;28;20053;-80
2023/10/11 10:48:57;;;;;;;17.63;6.63;;;17.80;99.90;;;;;;5072140;28;20086;-77
2023/10/11 10:51:27;;;;;;;15.65;6.10;;;17.80;99.90;;;;;;5072102;28;20060;-78
2023/10/11 10:53:53;;;;;;;15.13;6.45;;;17.80;99.90;;;;;;5072094;28;20076;-79
2023/10/11 10:56:25;;;;;;;18.48;7.38;;;17.90;99.90;;;;;;5073183;28;20087;-79
2023/10/11 10:59:14;;;;;;;15.35;6.38;;;18.00;99.90;;;;;;5072146;28;20466;-80
2023/10/11 11:01:46;;;;;;;16.67;6.43;;;18.00;99.90;;;;;;5072315;28;20526;-79
2023/10/11 11:04:13;;;;;;;;;;;18.00;99.90;;;;;;5072581;28;20506;-78
2023/10/11 11:06:39;;;;;;;16.33;6.80;;;18.00;99.90;;;;;;5073485;28;19924;-79
2023/10/11 11:09:13;;;;;;;13.65;6.60;;;18.00;99.90;;;;;;5071957;28;20503;-79
2023/10/11 11:11:39;;;;;;;19.45;6.68;;;18.10;99.90;;;;;;5071871;28;20052;-80
2023/10/11 11:14:09;;;;;;;15.50;6.53;;;18.10;99.90;;;;;;5072050;28;20123;-80
2023/10/11 11:16:39;;;;;;;18.45;6.38;;;18.10;99.90;;;;;;5072085;28;20041;-79
2023/10/11 11:19:16;;;;;;;14.05;6.40;;;18.10;99.90;;;;;;5073313;28;20115;-79
2023/10/11 11:21:46;;;;;;;17.95;6.45;;;18.10;99.90;;;;;;5072283;28;20044;-79
2023/10/11 11:24:27;;;;;;;14.57;5.95;;;18.20;99.90;;;;;;5072082;28;20116;-79
2023/10/11 11:26:54;;;;;;;15.88;6.28;;;18.20;99.90;;;;;;5072082;28;20052;-80
2023/10/11 11:29:33;;;;;;;14.70;6.07;;;18.20;99.90;;;;;;5071738;28;20067;-79
2023/10/11 11:31:59;;;;;;;17.77;6.75;;;18.30;99.90;;;;;;5071928;28;20097;-79
2023/10/11 11:34:37;;;;;;;13.10;6.00;;;18.30;99.90;;;;;;5071986;28;20072;-80
2023/10/11 11:37:07;;;;;;;14.15;4.90;;;18.30;99.90;;;;;;5071778;28;20132;-79
2023/10/11 11:39:39;;;;;;;15.38;5.72;;;18.30;99.90;;;;;;5072974;28;20048;-79
2023/10/11 11:42:24;;;;;;;15.98;5.65;;;18.30;99.90;;;;;;5071673;28;20045;-79
2023/10/11 11:44:51;;;;;;;18.65;5.53;;;18.40;99.90;;;;;;5071886;28;20504;-80
2023/10/11 11:47:21;;;;;;;16.92;6.38;;;18.40;99.90;;;;;;5071545;28;20060;-79
2023/10/11 11:49:47;;;;;;;13.48;5.20;;;18.50;99.90;;;;;;5072174;28;20057;-79
2023/10/11 11:52:16;;;;;;;11.40;4.57;;;18.60;99.90;;;;;;5075507;28;20404;-80
2023/10/11 11:54:43;;;;;;;15.48;5.50;;;18.70;99.90;;;;;;5075400;28;20462;-79
2023/10/11 11:57:09;;;;;;;14.45;5.43;;;18.70;99.90;;;;;;5075356;28;20060;-79
2023/10/11 11:59:36;;;;;;;12.82;5.45;;;18.70;99.90;;;;;;5075607;28;20090;-80
2023/10/11 12:02:02;;;;;;;15.70;5.18;;;18.60;99.90;;;;;;5075242;28;20127;-80
2023/10/11 12:04:29;;;;;;;21.02;6.10;;;18.60;99.90;;;;;;5075438;28;20541;-79
2023/10/11 12:07:09;;;;;;;15.95;5.70;;;18.50;99.90;;;;;;5075618;28;20090;-79
2023/10/11 12:09:35;;;;;;;16.23;6.22;;;18.50;99.90;;;;;;5075277;28;20128;-79
2023/10/11 12:12:05;;;;;;;17.52;5.88;;;18.50;99.90;;;;;;5076176;28;20044;-80
2023/10/11 12:14:38;;;;;;;25.10;6.78;;;18.50;99.90;;;;;;5075488;28;20127;-80
2023/10/11 12:17:09;;;;;;;18.17;6.18;;;18.40;99.90;;;;;;5075336;28;20051;-80
2023/10/11 12:19:41;;;;;;;16.55;5.53;;;18.40;99.90;;;;;;5076537;28;20496;-81
2023/10/11 12:22:08;;;;;;;18.35;5.35;;;18.30;99.90;;;;;;5075039;28;20040;-80
2023/10/11 12:24:35;;;;;;;21.70;6.97;;;18.30;99.90;;;;;;5075050;28;20056;-80
2023/10/11 12:27:01;;;;;;;22.35;5.65;;;18.30;99.90;;;;;;5074919;28;20041;-80
2023/10/11 12:29:27;;;;;;;14.85;5.70;;;18.30;99.90;;;;;;5076534;28;20049;-81
2023/10/11 12:31:56;;;;;;;12.60;4.45;;;18.30;99.90;;;;;;5074952;28;20122;-80
2023/10/11 12:34:24;;;;;;;18.15;5.47;;;18.30;99.90;;;;;;5074813;28;20049;-80
2023/10/11 12:36:55;;;;;;;15.88;5.47;;;18.30;99.90;;;;;;5074960;28;20062;-80
2023/10/11 12:39:24;;;;;;;18.88;5.72;;;18.30;99.90;;;;;;5074862;28;20483;-80
2023/10/11 12:41:51;;;;;;;17.48;5.53;;;18.40;99.90;;;;;;5076352;28;20128;-81
2023/10/11 12:44:18;;;;;;;13.15;4.85;;;18.40;99.90;;;;;;5074983;28;20492;-80
2023/10/11 12:46:44;;;;;;;19.58;6.07;;;18.40;99.90;;;;;;5075948;28;20063;-81
2023/10/11 12:49:13;;;;;;;17.33;6.10;;;18.40;99.90;;;;;;5075245;28;20056;-80
2023/10/11 12:51:43;;;;;;;16.63;6.03;;;18.40;99.90;;;;;;5075287;28;20048;-80
2023/10/11 12:54:13;;;;;;;14.32;5.95;;;18.40;99.90;;;;;;5074500;28;20504;-81
2023/10/11 12:56:39;;;;;;;12.63;6.15;;;18.40;99.90;;;;;;5075978;28;20048;-81
2023/10/11 12:59:12;;;;;;;17.77;6.45;;;18.40;99.90;;;;;;5074432;28;20048;-81
2023/10/11 13:01:50;;;;;;;18.48;6.35;;;18.40;99.90;;;;;;5072896;28;20496;-80
2023/10/11 13:04:30;;;;;;;12.52;5.82;;;18.40;99.90;;;;;;5074351;28;20048;-80
2023/10/11 13:06:59;;;;;;;14.00;5.85;;;18.40;99.90;;;;;;5075587;28;20165;-80
2023/10/11 13:09:27;;;;;;;16.52;5.63;;;18.40;99.90;;;;;;5075647;28;20055;-81
2023/10/11 13:12:02;;;;;;;19.45;6.30;;;18.40;99.90;;;;;;5075705;28;20048;-80
2023/10/11 13:14:28;;;;;;;19.23;5.95;;;18.30;99.90;;;;;;5074383;28;20419;-80
2023/10/11 13:16:55;;;;;;;16.85;6.03;;;18.40;99.90;;;;;;5074011;28;20044;-80
2023/10/11 13:19:24;;;;;;;16.88;5.70;;;18.30;99.90;;;;;;5074059;28;20059;-80
2023/10/11 13:21:53;;;;;;;19.77;5.85;;;18.30;99.90;;;;;;5075616;28;20044;-80
2023/10/11 13:24:22;;;;;;;17.35;6.55;;;18.30;99.90;;;;;;5074176;28;20131;-80
2023/10/11 13:26:54;;;;;;;16.38;6.10;;;18.30;99.90;;;;;;5073936;28;20040;-81
2023/10/11 13:29:20;;;;;;;13.55;5.95;;;18.30;99.90;;;;;;5075243;28;20036;-80
2023/10/11 13:31:54;;;;;;;14.50;5.70;;;18.30;99.90;;;;;;5073813;28;20075;-80
2023/10/11 13:34:21;;;;;;;18.30;5.97;;;18.30;99.90;;;;;;5074040;28;20052;-81
2023/10/11 13:36:47;;;;;;;15.30;5.70;;;18.30;99.90;;;;;;5075154;28;20051;-80
2023/10/11 13:39:25;;;;;;;18.80;5.90;;;18.40;99.90;;;;;;5074804;28;20127;-80
2023/10/11 13:42:09;;;;;;;20.63;5.70;;;18.40;99.90;;;;;;5073917;28;20045;-80
2023/10/11 13:44:38;;;;;;;14.40;5.60;;;18.50;99.90;;;;;;5073618;28;20044;-80
2023/10/11 13:47:04;;;;;;;13.82;5.40;;;18.50;99.90;;;;;;5073512;28;20044;-81
2023/10/11 13:49:33;;;;;;;11.75;5.22;;;18.60;99.90;;;;;;5073545;28;20055;-80
2023/10/11 13:52:02;;;;;;;13.43;4.55;;;18.60;99.90;;;;;;5073540;28;20438;-80